createdAt,value
2018-08-23T00:01:24.354Z,22.47
2018-08-23T00:03:53.831Z,22.43
2018-08-23T00:06:23.132Z,22.36
2018-08-23T00:08:52.845Z,22.33
2018-08-23T00:11:26.133Z,22.27
2018-08-23T00:13:55.485Z,22.23
2018-08-23T00:16:32.973Z,22.23
2018-08-23T00:19:03.248Z,22.19
2018-08-23T00:21:32.576Z,22.02
2018-08-23T00:24:10.346Z,21.89
2018-08-23T00:26:45.270Z,21.79
2018-08-23T00:29:20.117Z,21.76
2018-08-23T00:31:53.728Z,21.72
2018-08-23T00:34:26.893Z,21.74
2018-08-23T00:36:56.920Z,21.81
2018-08-23T00:39:26.735Z,21.79
2018-08-23T00:42:01.455Z,21.57
2018-08-23T00:44:36.958Z,21.52
2018-08-23T00:47:06.200Z,21.49
2018-08-23T00:49:35.600Z,21.35
2018-08-23T00:52:05.003Z,21.24
2018-08-23T00:54:34.303Z,21.20
2018-08-23T00:57:03.698Z,21.20
2018-08-23T00:59:33.207Z,21.14
2018-08-23T01:02:07.763Z,21.18
2018-08-23T01:04:43.476Z,21.18
2018-08-23T01:07:15.707Z,21.09
2018-08-23T01:09:45.416Z,21.01
2018-08-23T01:12:14.861Z,20.96
2018-08-23T01:14:44.264Z,20.70
2018-08-23T01:17:17.329Z,20.75
2018-08-23T01:19:52.181Z,20.77
2018-08-23T01:22:21.587Z,20.78
2018-08-23T01:24:51.189Z,20.82
2018-08-23T01:27:25.814Z,20.77
2018-08-23T01:29:55.143Z,20.82
2018-08-23T01:32:29.744Z,20.88
2018-08-23T01:34:59.140Z,20.84
2018-08-23T01:37:36.795Z,20.82
2018-08-23T01:40:08.138Z,20.65
2018-08-23T01:42:38.610Z,20.60
2018-08-23T01:45:09.287Z,20.55
2018-08-23T01:47:44.448Z,20.49
2018-08-23T01:50:14.661Z,20.51
2018-08-23T01:52:50.031Z,20.46
2018-08-23T01:55:20.058Z,20.45
2018-08-23T01:57:50.019Z,20.41
2018-08-23T02:00:22.337Z,20.39
2018-08-23T02:02:51.826Z,20.35
2018-08-23T02:05:21.251Z,20.38
2018-08-23T02:07:50.585Z,20.25
2018-08-23T02:10:20.055Z,20.15
2018-08-23T02:12:50.378Z,20.06
2018-08-23T02:15:19.987Z,19.97
2018-08-23T02:17:54.098Z,19.86
2018-08-23T02:20:24.425Z,19.98
2018-08-23T02:22:54.439Z,20.00
2018-08-23T02:25:24.045Z,19.97
2018-08-23T02:28:01.365Z,19.97
2018-08-23T02:30:43.432Z,20.02
2018-08-23T02:33:13.654Z,19.97
2018-08-23T02:35:54.986Z,19.91
2018-08-23T02:38:24.803Z,19.83
2018-08-23T02:40:54.352Z,19.81
2018-08-23T02:43:23.753Z,19.79
2018-08-23T02:45:53.804Z,19.80
2018-08-23T02:48:24.299Z,19.83
2018-08-23T02:50:54.113Z,19.86
2018-08-23T02:53:35.290Z,19.82
2018-08-23T02:56:06.894Z,19.77
2018-08-23T02:59:00.198Z,19.74
2018-08-23T03:01:32.122Z,19.85
2018-08-23T03:04:09.763Z,19.82
2018-08-23T03:06:53.851Z,19.67
2018-08-23T03:09:28.406Z,19.65
2018-08-23T03:11:59.883Z,19.63
2018-08-23T03:14:29.951Z,19.73
2018-08-23T03:18:06.148Z,19.67
2018-08-23T03:20:35.675Z,19.53
2018-08-23T03:23:05.073Z,19.42
2018-08-23T03:25:34.421Z,19.37
2018-08-23T03:28:03.671Z,19.42
2018-08-23T03:30:32.994Z,19.50
2018-08-23T03:33:02.373Z,19.40
2018-08-23T03:35:31.624Z,19.42
2018-08-23T03:38:00.973Z,19.42
2018-08-23T03:40:30.375Z,19.47
2018-08-23T03:42:59.570Z,19.53
2018-08-23T03:45:29.082Z,19.49
2018-08-23T03:47:58.284Z,19.52
2018-08-23T03:50:27.675Z,19.49
2018-08-23T03:52:57.184Z,19.53
2018-08-23T03:55:26.892Z,19.43
2018-08-23T03:58:02.948Z,19.42
2018-08-23T04:00:37.572Z,19.49
2018-08-23T04:03:12.092Z,19.49
2018-08-23T04:05:41.273Z,19.52
2018-08-23T04:08:10.763Z,19.47
2018-08-23T04:10:40.129Z,19.52
2018-08-23T04:13:09.599Z,19.55
2018-08-23T04:15:38.899Z,19.57
2018-08-23T04:18:16.909Z,19.57
2018-08-23T04:20:55.524Z,19.56
2018-08-23T04:23:24.922Z,19.61
2018-08-23T04:25:54.529Z,19.57
2018-08-23T04:28:23.833Z,19.53
2018-08-23T04:30:53.541Z,19.48
2018-08-23T04:33:22.939Z,19.51
2018-08-23T04:35:52.444Z,19.45
2018-08-23T04:38:21.846Z,19.42
2018-08-23T04:40:59.138Z,19.47
2018-08-23T04:43:28.446Z,19.42
2018-08-23T04:45:57.939Z,19.45
2018-08-23T04:48:27.647Z,19.46
2018-08-23T04:50:56.867Z,19.41
2018-08-23T04:53:26.560Z,19.41
2018-08-23T04:55:55.955Z,19.53
2018-08-23T04:58:25.459Z,19.57
2018-08-23T05:00:54.862Z,19.58
2018-08-23T05:03:24.475Z,19.57
2018-08-23T05:05:53.973Z,19.68
2018-08-23T05:08:23.374Z,19.69
2018-08-23T05:10:52.776Z,19.72
2018-08-23T05:13:22.074Z,19.72
2018-08-23T05:15:51.351Z,19.81
2018-08-23T05:18:20.777Z,19.95
2018-08-23T05:20:50.183Z,20.04
2018-08-23T05:23:20.419Z,20.07
2018-08-23T05:25:51.960Z,20.11
2018-08-23T05:28:21.355Z,20.25
2018-08-23T05:30:50.862Z,20.52
2018-08-23T05:33:21.578Z,20.40
2018-08-23T05:35:51.003Z,20.72
2018-08-23T05:38:20.915Z,21.29
2018-08-23T05:40:57.231Z,22.07
2018-08-23T05:43:26.677Z,22.96
2018-08-23T05:45:56.897Z,23.69
2018-08-23T05:48:32.441Z,24.18
2018-08-23T05:51:10.144Z,24.64
2018-08-23T05:53:41.809Z,24.82
2018-08-23T05:56:11.607Z,24.66
2018-08-23T05:58:41.222Z,24.21
2018-08-23T06:01:10.615Z,24.00
2018-08-23T06:03:40.018Z,23.74
2018-08-23T06:06:09.528Z,23.46
2018-08-23T06:08:43.130Z,23.42
2018-08-23T06:11:13.023Z,23.32
2018-08-23T06:13:49.102Z,23.33
2018-08-23T06:16:18.600Z,23.32
2018-08-23T06:18:48.000Z,23.20
2018-08-23T06:21:19.923Z,23.21
2018-08-23T06:24:10.766Z,23.09
2018-08-23T06:26:49.957Z,22.71
2018-08-23T06:29:24.016Z,22.65
2018-08-23T06:32:13.194Z,23.00
2018-08-23T06:34:52.885Z,23.38
2018-08-23T06:37:23.752Z,23.36
2018-08-23T06:39:53.054Z,23.24
2018-08-23T06:42:36.529Z,23.34
2018-08-23T06:45:05.884Z,23.41
2018-08-23T06:47:35.288Z,23.39
2018-08-23T06:50:04.793Z,23.59
2018-08-23T06:52:49.959Z,23.61
2018-08-23T06:55:27.354Z,23.76
2018-08-23T06:57:59.827Z,23.81
2018-08-23T07:00:29.638Z,23.78
2018-08-23T07:02:59.080Z,23.95
2018-08-23T07:05:28.570Z,23.97
2018-08-23T07:07:58.050Z,23.98
2018-08-23T07:10:27.572Z,24.02
2018-08-23T07:12:57.838Z,24.02
2018-08-23T07:15:27.532Z,24.27
2018-08-23T07:17:57.186Z,24.43
2018-08-23T07:20:27.231Z,24.55
2018-08-23T07:22:57.422Z,24.57
2018-08-23T07:25:27.789Z,24.71
2018-08-23T07:27:58.854Z,24.69
2018-08-23T07:30:29.761Z,24.76
2018-08-23T07:32:59.489Z,25.03
2018-08-23T07:35:29.294Z,25.02
2018-08-23T07:37:59.279Z,24.91
2018-08-23T07:40:29.023Z,25.16
2018-08-23T07:42:58.769Z,25.14
2018-08-23T07:45:28.714Z,25.12
2018-08-23T07:47:58.317Z,25.36
2018-08-23T07:50:28.010Z,25.47
2018-08-23T07:52:58.018Z,25.84
2018-08-23T07:55:27.679Z,25.91
2018-08-23T07:57:57.482Z,25.85
2018-08-23T08:00:30.053Z,26.00
2018-08-23T08:02:59.742Z,26.04
2018-08-23T08:05:31.341Z,26.22
2018-08-23T08:08:02.224Z,26.39
2018-08-23T08:10:36.829Z,26.49
2018-08-23T08:13:06.714Z,26.70
2018-08-23T08:15:36.255Z,26.82
2018-08-23T08:18:10.802Z,27.02
2018-08-23T08:20:40.893Z,27.36
2018-08-23T08:23:11.253Z,27.52
2018-08-23T08:25:41.182Z,27.88
2018-08-23T08:28:15.888Z,28.05
2018-08-23T08:30:46.875Z,28.25
2018-08-23T08:33:18.157Z,28.56
2018-08-23T08:35:48.288Z,28.46
2018-08-23T08:38:18.722Z,29.02
2018-08-23T08:40:51.250Z,29.21
2018-08-23T08:43:21.152Z,29.52
2018-08-23T08:45:55.957Z,29.67
2018-08-23T08:48:30.840Z,29.89
2018-08-23T08:51:33.346Z,30.23
2018-08-23T08:54:04.318Z,30.45
2018-08-23T08:56:41.502Z,30.69
2018-08-23T08:59:11.990Z,30.90
2018-08-23T09:01:41.872Z,30.77
2018-08-23T09:04:16.345Z,31.08
2018-08-23T09:06:47.909Z,31.58
2018-08-23T09:09:30.304Z,31.34
2018-08-23T09:12:02.861Z,31.95
2018-08-23T09:14:32.606Z,32.11
2018-08-23T09:17:16.275Z,32.41
2018-08-23T09:19:57.697Z,31.99
2018-08-23T09:22:37.906Z,32.58
2018-08-23T09:25:21.154Z,32.28
2018-08-23T09:27:51.537Z,32.62
2018-08-23T09:30:28.889Z,32.78
2018-08-23T09:33:02.767Z,32.80
2018-08-23T09:35:33.627Z,32.94
2018-08-23T09:38:11.861Z,33.02
2018-08-23T09:40:42.205Z,32.82
2018-08-23T09:43:12.539Z,32.90
2018-08-23T09:45:42.345Z,33.13
2018-08-23T09:48:12.157Z,33.27
2018-08-23T09:50:42.097Z,33.50
2018-08-23T09:53:18.038Z,33.32
2018-08-23T09:55:49.196Z,32.86
2018-08-23T09:58:25.457Z,33.08
2018-08-23T10:01:01.163Z,33.30
2018-08-23T10:03:36.594Z,33.77
2018-08-23T10:06:12.687Z,34.11
2018-08-23T10:08:48.603Z,34.32
2018-08-23T10:11:24.564Z,34.27
2018-08-23T10:13:59.488Z,34.61
2018-08-23T10:16:34.633Z,34.21
2018-08-23T10:19:10.199Z,34.15
2018-08-23T10:21:45.103Z,34.04
2018-08-23T10:24:20.165Z,34.39
2018-08-23T10:26:49.978Z,34.51
2018-08-23T10:29:19.704Z,34.56
2018-08-23T10:31:49.381Z,34.48
2018-08-23T10:34:19.229Z,34.44
2018-08-23T10:36:49.209Z,34.66
2018-08-23T10:39:19.055Z,34.82
2018-08-23T10:41:48.738Z,35.10
2018-08-23T10:44:18.660Z,35.48
2018-08-23T10:46:53.313Z,35.76
2018-08-23T10:49:23.410Z,35.13
2018-08-23T10:51:53.268Z,35.18
2018-08-23T10:54:22.738Z,35.43
2018-08-23T10:56:52.426Z,35.85
2018-08-23T10:59:22.328Z,35.44
2018-08-23T11:01:53.178Z,35.54
2018-08-23T11:04:22.845Z,35.45
2018-08-23T11:06:58.662Z,35.72
2018-08-23T11:09:33.184Z,35.49
2018-08-23T11:12:03.182Z,35.41
2018-08-23T11:14:37.911Z,35.44
2018-08-23T11:17:13.723Z,35.75
2018-08-23T11:19:48.553Z,35.74
2018-08-23T11:22:18.259Z,35.80
2018-08-23T11:24:49.348Z,35.77
2018-08-23T11:27:19.214Z,35.51
2018-08-23T11:29:49.089Z,35.70
2018-08-23T11:32:20.164Z,35.48
2018-08-23T11:34:50.026Z,35.38
2018-08-23T11:37:19.699Z,35.25
2018-08-23T11:39:50.077Z,35.60
2018-08-23T11:42:19.830Z,35.75
2018-08-23T11:44:50.617Z,35.98
2018-08-23T11:47:20.270Z,35.93
2018-08-23T11:49:49.989Z,35.55
2018-08-23T11:52:19.853Z,35.52
2018-08-23T11:54:50.562Z,35.46
2018-08-23T11:57:21.975Z,35.33
2018-08-23T11:59:53.492Z,35.46
2018-08-23T12:02:23.385Z,35.51
2018-08-23T12:04:56.144Z,35.43
2018-08-23T12:07:27.074Z,35.52
2018-08-23T12:09:56.947Z,35.56
2018-08-23T12:12:26.624Z,35.59
2018-08-23T12:15:03.000Z,35.31
2018-08-23T12:17:38.059Z,35.65
2018-08-23T12:20:12.113Z,35.43
2018-08-23T12:22:45.378Z,35.64
2018-08-23T12:25:16.026Z,35.65
2018-08-23T12:27:55.455Z,35.78
2018-08-23T12:30:25.411Z,36.10
2018-08-23T12:32:55.498Z,36.13
2018-08-23T12:35:27.358Z,35.93
2018-08-23T12:38:05.553Z,35.97
2018-08-23T12:40:42.071Z,35.95
2018-08-23T12:43:15.266Z,35.95
2018-08-23T12:45:47.318Z,36.50
2018-08-23T12:48:18.520Z,36.22
2018-08-23T12:50:48.953Z,36.23
2018-08-23T12:53:19.507Z,36.06
2018-08-23T12:55:51.405Z,36.07
2018-08-23T12:58:22.905Z,35.56
2018-08-23T13:00:53.801Z,35.46
2018-08-23T13:03:26.974Z,35.55
2018-08-23T13:06:00.131Z,36.00
2018-08-23T13:08:31.270Z,35.91
2018-08-23T13:11:02.713Z,35.92
2018-08-23T13:13:34.210Z,36.16
2018-08-23T13:16:04.290Z,35.47
2018-08-23T13:18:35.767Z,35.82
2018-08-23T13:21:06.298Z,36.12
2018-08-23T13:23:46.826Z,36.29
2018-08-23T13:26:19.528Z,35.68
2018-08-23T13:28:49.487Z,35.45
2018-08-23T13:31:19.442Z,35.03
2018-08-23T13:33:50.370Z,34.97
2018-08-23T13:36:20.480Z,35.01
2018-08-23T13:38:51.362Z,35.37
2018-08-23T13:41:21.499Z,35.40
2018-08-23T13:43:51.676Z,35.33
2018-08-23T13:46:22.970Z,34.95
2018-08-23T13:48:53.846Z,34.68
2018-08-23T13:51:26.641Z,34.59
2018-08-23T13:53:56.740Z,34.34
2018-08-23T13:56:27.195Z,34.27
2018-08-23T13:58:57.539Z,34.12
2018-08-23T14:01:28.642Z,34.59
2018-08-23T14:04:00.354Z,34.55
2018-08-23T14:06:33.723Z,34.41
2018-08-23T14:09:05.491Z,34.38
2018-08-23T14:11:40.529Z,34.70
2018-08-23T14:14:13.443Z,35.13
2018-08-23T14:16:44.887Z,35.24
2018-08-23T14:19:16.160Z,35.38
2018-08-23T14:21:48.131Z,35.31
2018-08-23T14:24:19.891Z,35.04
2018-08-23T14:26:52.056Z,35.05
2018-08-23T14:29:24.848Z,35.15
2018-08-23T14:31:56.644Z,34.81
2018-08-23T14:34:26.738Z,34.67
2018-08-23T14:36:57.379Z,34.75
2018-08-23T14:39:29.662Z,34.61
2018-08-23T14:41:59.764Z,34.23
2018-08-23T14:44:32.379Z,34.20
2018-08-23T14:47:07.226Z,34.48
2018-08-23T14:49:39.589Z,34.55
2018-08-23T14:52:09.426Z,34.13
2018-08-23T14:54:41.746Z,33.97
2018-08-23T14:57:17.890Z,33.80
2018-08-23T14:59:47.977Z,34.10
2018-08-23T15:02:19.100Z,34.13
2018-08-23T15:04:49.676Z,34.05
2018-08-23T15:07:21.573Z,33.78
2018-08-23T15:09:51.441Z,33.80
2018-08-23T15:12:22.247Z,34.00
2018-08-23T15:14:52.428Z,33.89
2018-08-23T15:17:22.317Z,33.74
2018-08-23T15:19:53.752Z,33.87
2018-08-23T15:22:23.591Z,33.93
2018-08-23T15:24:53.512Z,34.17
2018-08-23T15:27:33.967Z,34.38
2018-08-23T15:30:05.060Z,34.08
2018-08-23T15:32:36.615Z,34.37
2018-08-23T15:35:06.825Z,34.47
2018-08-23T15:37:36.918Z,33.83
2018-08-23T15:40:09.707Z,33.59
2018-08-23T15:42:41.272Z,33.13
2018-08-23T15:45:12.208Z,33.00
2018-08-23T15:47:42.655Z,33.06
2018-08-23T15:50:13.217Z,33.41
2018-08-23T15:52:44.858Z,33.64
2018-08-23T15:55:14.886Z,33.84
2018-08-23T15:57:44.718Z,34.00
2018-08-23T16:00:16.129Z,33.91
2018-08-23T16:02:48.879Z,33.67
2018-08-23T16:05:19.466Z,33.51
2018-08-23T16:07:49.537Z,33.27
2018-08-23T16:10:19.885Z,33.48
2018-08-23T16:12:50.398Z,33.30
2018-08-23T16:15:22.234Z,33.57
2018-08-23T16:17:57.643Z,33.58
2018-08-23T16:20:32.913Z,33.85
2018-08-23T16:23:02.418Z,33.85
2018-08-23T16:25:36.194Z,33.55
2018-08-23T16:28:06.264Z,33.92
2018-08-23T16:30:35.951Z,33.69
2018-08-23T16:33:05.870Z,33.09
2018-08-23T16:35:41.065Z,33.40
2018-08-23T16:38:11.631Z,33.05
2018-08-23T16:40:41.456Z,33.01
2018-08-23T16:43:12.338Z,33.00
2018-08-23T16:45:42.920Z,32.74
2018-08-23T16:48:12.392Z,32.51
2018-08-23T16:50:42.028Z,32.28
2018-08-23T16:53:11.566Z,32.14
2018-08-23T16:55:41.307Z,31.87
2018-08-23T16:58:11.969Z,31.70
2018-08-23T17:00:41.580Z,31.55
2018-08-23T17:03:11.026Z,31.93
2018-08-23T17:05:40.738Z,32.03
2018-08-23T17:08:10.815Z,31.78
2018-08-23T17:10:40.308Z,31.69
2018-08-23T17:13:13.902Z,31.87
2018-08-23T17:15:48.848Z,31.58
2018-08-23T17:18:18.496Z,31.56
2018-08-23T17:20:47.922Z,31.40
2018-08-23T17:23:17.514Z,31.29
2018-08-23T17:25:46.959Z,31.49
2018-08-23T17:28:16.673Z,31.87
2018-08-23T17:30:46.265Z,31.86
2018-08-23T17:33:15.695Z,31.99
2018-08-23T17:35:45.183Z,32.01
2018-08-23T17:38:14.629Z,31.81
2018-08-23T17:40:44.194Z,31.65
2018-08-23T17:43:13.685Z,31.58
2018-08-23T17:45:43.103Z,31.22
2018-08-23T17:48:12.707Z,31.02
2018-08-23T17:50:42.110Z,31.13
2018-08-23T17:53:11.411Z,31.23
2018-08-23T17:55:40.726Z,31.32
2018-08-23T17:58:10.214Z,31.31
2018-08-23T18:00:40.041Z,31.37
2018-08-23T18:03:09.925Z,31.44
2018-08-23T18:05:39.445Z,31.17
2018-08-23T18:08:08.951Z,30.98
2018-08-23T18:10:38.353Z,30.87
2018-08-23T18:13:07.751Z,30.84
2018-08-23T18:15:42.587Z,30.86
2018-08-23T18:18:12.095Z,30.76
2018-08-23T18:20:41.871Z,30.75
2018-08-23T18:23:11.504Z,30.69
2018-08-23T18:25:40.977Z,30.59
2018-08-23T18:28:10.510Z,30.54
2018-08-23T18:30:40.025Z,30.47
2018-08-23T18:33:10.551Z,30.26
2018-08-23T18:35:40.025Z,30.02
2018-08-23T18:38:09.888Z,30.00
2018-08-23T18:40:40.733Z,30.03
2018-08-23T18:43:10.980Z,29.96
2018-08-23T18:45:40.791Z,29.89
2018-08-23T18:48:10.442Z,29.81
2018-08-23T18:50:40.979Z,29.75
2018-08-23T18:53:10.802Z,29.56
2018-08-23T18:55:40.527Z,29.50
2018-08-23T18:58:10.404Z,29.40
2018-08-23T19:00:40.425Z,29.30
2018-08-23T19:03:10.230Z,29.19
2018-08-23T19:05:40.467Z,29.03
2018-08-23T19:08:10.673Z,29.05
2018-08-23T19:10:41.683Z,28.75
2018-08-23T19:13:11.807Z,28.64
2018-08-23T19:15:47.105Z,28.59
2018-08-23T19:18:17.041Z,28.54
2018-08-23T19:20:46.936Z,28.48
2018-08-23T19:23:17.027Z,28.43
2018-08-23T19:25:46.857Z,28.43
2018-08-23T19:28:16.644Z,28.45
2018-08-23T19:30:46.614Z,28.56
2018-08-23T19:33:17.507Z,28.51
2018-08-23T19:35:48.663Z,28.48
2018-08-23T19:38:18.570Z,28.40
2018-08-23T19:40:48.318Z,28.40
2018-08-23T19:43:18.813Z,28.41
2018-08-23T19:45:53.751Z,28.42
2018-08-23T19:48:23.756Z,28.33
2018-08-23T19:50:53.766Z,28.27
2018-08-23T19:53:23.787Z,28.22
2018-08-23T19:55:53.896Z,28.12
2018-08-23T19:58:24.073Z,28.05
2018-08-23T20:00:54.145Z,28.04
2018-08-23T20:03:23.961Z,27.95
2018-08-23T20:05:53.440Z,27.88
2018-08-23T20:08:22.859Z,27.81
2018-08-23T20:10:53.059Z,27.72
2018-08-23T20:13:22.678Z,27.68
2018-08-23T20:15:52.187Z,27.67
2018-08-23T20:18:21.977Z,27.67
2018-08-23T20:20:51.775Z,27.56
2018-08-23T20:23:22.461Z,27.49
2018-08-23T20:25:52.078Z,27.41
2018-08-23T20:28:21.654Z,27.39
2018-08-23T20:30:51.222Z,27.28
2018-08-23T20:33:20.755Z,27.15
2018-08-23T20:35:50.208Z,27.17
2018-08-23T20:38:19.662Z,27.05
2018-08-23T20:40:49.168Z,26.99
2018-08-23T20:43:18.634Z,26.96
2018-08-23T20:45:48.180Z,26.96
2018-08-23T20:48:17.680Z,26.81
2018-08-23T20:50:47.288Z,26.75
2018-08-23T20:53:16.690Z,26.61
2018-08-23T20:55:46.196Z,26.52
2018-08-23T20:58:15.509Z,26.43
2018-08-23T21:00:44.996Z,26.40
2018-08-23T21:03:14.469Z,26.33
2018-08-23T21:05:43.802Z,26.16
2018-08-23T21:08:13.132Z,26.10
2018-08-23T21:10:42.606Z,26.13
2018-08-23T21:13:12.216Z,26.07
2018-08-23T21:15:41.717Z,26.02
2018-08-23T21:18:12.144Z,26.00
2018-08-23T21:20:42.161Z,25.81
2018-08-23T21:23:11.610Z,25.73
2018-08-23T21:25:40.860Z,25.85
2018-08-23T21:28:10.162Z,25.83
2018-08-23T21:30:39.564Z,25.76
2018-08-23T21:33:08.867Z,25.63
2018-08-23T21:35:38.372Z,25.55
2018-08-23T21:38:08.182Z,25.47
2018-08-23T21:40:37.415Z,25.45
2018-08-23T21:43:06.780Z,25.42
2018-08-23T21:45:36.183Z,25.38
2018-08-23T21:48:05.892Z,25.35
2018-08-23T21:50:35.120Z,25.37
2018-08-23T21:53:04.591Z,25.40
2018-08-23T21:55:36.862Z,25.38
2018-08-23T21:58:09.238Z,25.41
2018-08-23T22:00:43.642Z,25.46
2018-08-23T22:03:13.841Z,25.55
2018-08-23T22:05:43.585Z,25.54
2018-08-23T22:08:12.836Z,25.51
2018-08-23T22:10:42.492Z,25.52
2018-08-23T22:13:12.186Z,25.45
2018-08-23T22:15:46.625Z,25.49
2018-08-23T22:18:16.640Z,25.41
2018-08-23T22:20:45.871Z,25.40
2018-08-23T22:23:15.249Z,25.37
2018-08-23T22:25:44.637Z,25.34
2018-08-23T22:28:14.143Z,25.29
2018-08-23T22:30:43.547Z,25.29
2018-08-23T22:33:13.645Z,25.27
2018-08-23T22:35:43.270Z,25.36
2018-08-23T22:38:12.675Z,25.33
2018-08-23T22:40:42.177Z,24.45
2018-08-23T22:43:11.568Z,23.73
2018-08-23T22:45:40.973Z,23.79
2018-08-23T22:48:10.373Z,24.08
2018-08-23T22:50:39.876Z,24.35
2018-08-23T22:53:09.382Z,24.45
2018-08-23T22:55:38.783Z,24.44
2018-08-23T22:58:08.109Z,24.54
2018-08-23T23:00:40.658Z,24.50
2018-08-23T23:03:15.317Z,24.71
2018-08-23T23:05:44.992Z,24.76
2018-08-23T23:08:14.397Z,24.75
2018-08-23T23:10:43.899Z,24.73
2018-08-23T23:13:13.260Z,24.87
2018-08-23T23:15:42.703Z,24.90
2018-08-23T23:18:12.105Z,24.91
2018-08-23T23:20:41.606Z,24.58
2018-08-23T23:23:10.843Z,24.56
2018-08-23T23:25:40.209Z,24.61
2018-08-23T23:28:09.406Z,24.69
2018-08-23T23:30:38.809Z,24.74
2018-08-23T23:33:08.211Z,24.81
2018-08-23T23:35:37.511Z,24.90
2018-08-23T23:38:07.011Z,24.58
2018-08-23T23:40:36.214Z,24.77
2018-08-23T23:43:05.723Z,24.79
2018-08-23T23:45:35.102Z,24.79
2018-08-23T23:48:04.520Z,24.93
2018-08-23T23:50:33.820Z,24.88
2018-08-23T23:53:03.222Z,24.78
2018-08-23T23:55:32.625Z,24.91
2018-08-23T23:58:02.026Z,24.86
